createdAt,value
2023-04-30T00:01:04.238Z,20.67
2023-04-30T00:02:37.579Z,19.67
2023-04-30T00:04:10.849Z,21.27
2023-04-30T00:05:43.968Z,20.03
2023-04-30T00:07:17.042Z,20.00
2023-04-30T00:08:50.180Z,20.47
2023-04-30T00:10:22.269Z,20.10
2023-04-30T00:11:55.406Z,19.60
2023-04-30T00:13:28.459Z,20.03
2023-04-30T00:15:01.933Z,19.43
2023-04-30T00:16:35.114Z,18.30
2023-04-30T00:18:08.390Z,19.83
2023-04-30T00:19:41.469Z,19.60
2023-04-30T00:21:13.797Z,19.30
2023-04-30T00:22:46.893Z,18.77
2023-04-30T00:24:20.039Z,18.27
2023-04-30T00:25:53.136Z,18.73
2023-04-30T00:27:26.251Z,18.17
2023-04-30T00:28:59.386Z,18.90
2023-04-30T00:30:33.797Z,18.23
2023-04-30T00:32:07.369Z,18.50
2023-04-30T00:33:40.762Z,18.83
2023-04-30T00:35:13.956Z,18.33
2023-04-30T00:36:47.087Z,17.53
2023-04-30T00:38:20.146Z,18.43
2023-04-30T00:39:53.362Z,18.17
2023-04-30T00:41:27.220Z,18.27
2023-04-30T00:43:00.290Z,18.53
2023-04-30T00:44:33.444Z,17.43
2023-04-30T00:46:07.988Z,18.50
2023-04-30T00:47:40.737Z,16.73
2023-04-30T00:49:13.989Z,17.57
2023-04-30T00:50:47.101Z,18.40
2023-04-30T00:52:20.516Z,17.83
2023-04-30T00:53:53.940Z,16.67
2023-04-30T00:55:27.622Z,17.17
2023-04-30T00:57:00.790Z,15.53
2023-04-30T00:58:33.379Z,14.40
2023-04-30T01:00:11.288Z,15.60
2023-04-30T01:01:45.927Z,15.07
2023-04-30T01:03:19.284Z,14.30
2023-04-30T01:04:52.987Z,13.70
2023-04-30T01:06:28.248Z,13.07
2023-04-30T01:08:01.506Z,14.37
2023-04-30T01:09:34.666Z,12.27
2023-04-30T01:11:19.534Z,12.50
2023-04-30T01:12:59.960Z,11.90
2023-04-30T01:14:44.280Z,12.00
2023-04-30T01:16:24.048Z,11.17
2023-04-30T01:18:05.091Z,11.80
2023-04-30T01:19:43.021Z,11.17
2023-04-30T01:21:18.978Z,11.00
2023-04-30T01:22:57.935Z,11.83
2023-04-30T01:25:02.620Z,11.50
2023-04-30T01:26:54.086Z,11.27
2023-04-30T01:28:29.528Z,11.97
2023-04-30T01:30:05.115Z,11.93
2023-04-30T01:31:38.235Z,12.00
2023-04-30T01:33:11.585Z,12.00
2023-04-30T01:34:44.789Z,12.37
2023-04-30T01:36:40.602Z,11.77
2023-04-30T01:38:35.415Z,11.00
2023-04-30T01:40:18.709Z,11.53
2023-04-30T01:41:59.151Z,11.73
2023-04-30T01:43:39.938Z,11.07
2023-04-30T01:45:33.952Z,10.67
2023-04-30T01:47:14.062Z,10.97
2023-04-30T01:49:01.042Z,9.97
2023-04-30T01:50:41.789Z,10.93
2023-04-30T01:52:20.696Z,11.60
2023-04-30T01:53:58.538Z,11.77
2023-04-30T01:55:38.889Z,11.50
2023-04-30T01:57:16.678Z,11.20
2023-04-30T01:58:52.943Z,11.90
2023-04-30T02:00:26.889Z,12.90
2023-04-30T02:02:02.044Z,12.67
2023-04-30T02:03:35.420Z,13.20
2023-04-30T02:05:09.371Z,13.10
2023-04-30T02:06:42.672Z,13.30
2023-04-30T02:08:15.114Z,13.33
2023-04-30T02:09:48.203Z,14.20
2023-04-30T02:11:21.572Z,15.03
2023-04-30T02:12:55.210Z,14.80
2023-04-30T02:14:30.811Z,14.73
2023-04-30T02:16:04.293Z,15.30
2023-04-30T02:17:37.540Z,14.50
2023-04-30T02:19:11.209Z,14.83
2023-04-30T02:20:44.366Z,14.77
2023-04-30T02:22:18.161Z,15.57
2023-04-30T02:23:51.241Z,15.13
2023-04-30T02:25:24.396Z,14.87
2023-04-30T02:26:57.476Z,14.63
2023-04-30T02:28:29.572Z,15.27
2023-04-30T02:30:05.542Z,14.03
2023-04-30T02:31:38.809Z,13.10
2023-04-30T02:33:14.605Z,13.07
2023-04-30T02:34:47.714Z,13.73
2023-04-30T02:36:20.793Z,13.13
2023-04-30T02:37:53.905Z,13.33
2023-04-30T02:39:26.038Z,12.10
2023-04-30T02:40:59.282Z,12.27
2023-04-30T02:42:32.400Z,11.53
2023-04-30T02:44:05.965Z,12.03
2023-04-30T02:45:41.474Z,11.80
2023-04-30T02:47:13.779Z,11.83
2023-04-30T02:48:46.854Z,10.57
2023-04-30T02:50:19.960Z,11.40
2023-04-30T02:51:52.072Z,10.77
2023-04-30T02:53:25.165Z,9.93
2023-04-30T02:54:57.349Z,10.80
2023-04-30T02:56:30.814Z,10.17
2023-04-30T02:58:04.013Z,10.40
2023-04-30T02:59:38.716Z,9.93
2023-04-30T03:01:12.411Z,9.77
2023-04-30T03:02:45.597Z,9.33
2023-04-30T03:04:17.766Z,9.63
2023-04-30T03:05:50.850Z,9.97
2023-04-30T03:07:22.917Z,9.77
2023-04-30T03:08:56.016Z,10.40
2023-04-30T03:10:29.143Z,9.40
2023-04-30T03:12:02.689Z,9.90
2023-04-30T03:13:36.012Z,10.03
2023-04-30T03:15:10.179Z,9.40
2023-04-30T03:16:44.683Z,9.07
2023-04-30T03:18:18.462Z,9.17
2023-04-30T03:19:51.635Z,9.13
2023-04-30T03:21:23.799Z,9.53
2023-04-30T03:22:56.886Z,9.63
2023-04-30T03:24:30.219Z,9.53
2023-04-30T03:26:04.116Z,9.43
2023-04-30T03:27:36.243Z,8.80
2023-04-30T03:29:09.386Z,9.07
2023-04-30T03:30:42.854Z,8.73
2023-04-30T03:32:17.307Z,8.97
2023-04-30T03:33:50.452Z,9.00
2023-04-30T03:35:22.605Z,8.73
2023-04-30T03:36:55.726Z,9.13
2023-04-30T03:38:28.829Z,8.90
2023-04-30T03:40:01.920Z,9.20
2023-04-30T03:41:34.994Z,9.20
2023-04-30T03:43:08.087Z,9.90
2023-04-30T03:44:41.144Z,9.37
2023-04-30T03:46:14.483Z,9.43
2023-04-30T03:47:49.077Z,9.47
2023-04-30T03:49:22.345Z,9.13
2023-04-30T03:50:55.567Z,9.60
2023-04-30T03:52:28.666Z,9.53
2023-04-30T03:54:01.785Z,9.00
2023-04-30T03:55:35.934Z,8.97
2023-04-30T03:57:10.749Z,8.97
2023-04-30T03:58:43.912Z,9.30
2023-04-30T04:00:17.986Z,9.10
2023-04-30T04:01:55.800Z,9.23
2023-04-30T04:03:29.354Z,9.50
2023-04-30T04:05:03.047Z,9.50
2023-04-30T04:06:36.188Z,8.93
2023-04-30T04:08:08.506Z,8.87
2023-04-30T04:09:41.835Z,8.77
2023-04-30T04:11:15.019Z,8.97
2023-04-30T04:12:48.198Z,8.17
2023-04-30T04:14:21.307Z,8.17
2023-04-30T04:15:54.461Z,8.33
2023-04-30T04:17:28.054Z,7.93
2023-04-30T04:19:02.539Z,8.47
2023-04-30T04:20:35.740Z,8.47
2023-04-30T04:22:09.185Z,8.10
2023-04-30T04:23:42.310Z,8.33
2023-04-30T04:25:16.015Z,8.17
2023-04-30T04:26:50.169Z,8.10
2023-04-30T04:28:23.413Z,8.23
2023-04-30T04:29:57.102Z,8.20
2023-04-30T04:31:30.537Z,7.70
2023-04-30T04:33:03.990Z,8.23
2023-04-30T04:34:38.777Z,7.87
2023-04-30T04:36:12.363Z,8.00
2023-04-30T04:37:45.686Z,7.90
2023-04-30T04:39:19.038Z,8.07
2023-04-30T04:40:53.275Z,7.70
2023-04-30T04:42:27.126Z,7.50
2023-04-30T04:44:00.309Z,8.10
2023-04-30T04:45:33.633Z,8.10
2023-04-30T04:47:06.789Z,8.33
2023-04-30T04:48:39.925Z,7.63
2023-04-30T04:50:14.552Z,7.80
2023-04-30T04:51:47.940Z,7.80
2023-04-30T04:53:20.363Z,7.60
2023-04-30T04:54:53.465Z,7.70
2023-04-30T04:56:26.713Z,7.53
2023-04-30T04:57:59.878Z,7.47
2023-04-30T04:59:33.080Z,8.07
2023-04-30T05:01:06.308Z,7.27
2023-04-30T05:02:38.575Z,7.57
2023-04-30T05:04:13.837Z,7.37
2023-04-30T05:05:48.365Z,7.37
2023-04-30T05:07:20.507Z,6.30
2023-04-30T05:08:53.736Z,6.83
2023-04-30T05:10:25.976Z,6.57
2023-04-30T05:11:59.089Z,6.60
2023-04-30T05:13:32.140Z,6.50
2023-04-30T05:15:06.629Z,6.37
2023-04-30T05:16:40.305Z,6.80
2023-04-30T05:18:13.469Z,7.20
2023-04-30T05:19:47.592Z,6.37
2023-04-30T05:21:23.070Z,6.40
2023-04-30T05:22:56.179Z,6.50
2023-04-30T05:24:29.534Z,6.20
2023-04-30T05:26:03.250Z,5.23
2023-04-30T05:27:36.502Z,5.87
2023-04-30T05:29:10.650Z,5.37
2023-04-30T05:30:42.717Z,5.60
2023-04-30T05:32:16.080Z,5.87
2023-04-30T05:33:48.537Z,5.47
2023-04-30T05:35:21.629Z,6.07
2023-04-30T05:36:56.665Z,6.43
2023-04-30T05:38:29.757Z,5.73
2023-04-30T05:40:02.930Z,6.27
2023-04-30T05:41:36.078Z,6.00
2023-04-30T05:43:09.150Z,5.87
2023-04-30T05:44:42.424Z,5.93
2023-04-30T05:46:15.577Z,6.03
2023-04-30T05:47:48.737Z,5.80
2023-04-30T05:49:21.886Z,5.90
2023-04-30T05:50:53.972Z,5.70
2023-04-30T05:52:28.426Z,5.97
2023-04-30T05:54:01.475Z,5.43
2023-04-30T05:55:34.620Z,4.50
2023-04-30T05:57:07.711Z,4.77
2023-04-30T05:58:40.970Z,4.27
2023-04-30T06:00:16.074Z,5.50
2023-04-30T06:01:48.265Z,5.00
2023-04-30T06:03:21.476Z,5.30
2023-04-30T06:04:54.606Z,5.60
2023-04-30T06:06:27.965Z,6.20
2023-04-30T06:08:02.514Z,5.67
2023-04-30T06:09:35.621Z,6.17
2023-04-30T06:11:08.776Z,6.20
2023-04-30T06:12:41.947Z,6.23
2023-04-30T06:14:15.429Z,5.77
2023-04-30T06:15:48.548Z,5.30
2023-04-30T06:17:21.672Z,4.90
2023-04-30T06:18:54.837Z,5.47
2023-04-30T06:20:28.210Z,4.80
2023-04-30T06:22:01.737Z,5.07
2023-04-30T06:23:36.217Z,4.97
2023-04-30T06:25:10.304Z,5.27
2023-04-30T06:26:43.635Z,5.13
2023-04-30T06:28:16.759Z,4.87
2023-04-30T06:29:49.881Z,5.00
2023-04-30T06:31:23.055Z,4.77
2023-04-30T06:32:56.353Z,5.17
2023-04-30T06:34:29.468Z,5.37
2023-04-30T06:36:02.557Z,5.00
2023-04-30T06:37:37.930Z,4.40
2023-04-30T06:39:15.443Z,4.00
2023-04-30T06:40:48.827Z,3.83
2023-04-30T06:42:22.047Z,3.90
2023-04-30T06:43:55.109Z,4.03
2023-04-30T06:45:29.130Z,4.70
2023-04-30T06:47:02.595Z,4.40
2023-04-30T06:48:35.730Z,4.27
2023-04-30T06:50:09.853Z,3.83
2023-04-30T06:51:43.445Z,4.60
2023-04-30T06:53:16.725Z,4.27
2023-04-30T06:54:51.209Z,4.40
2023-04-30T06:56:25.037Z,8.67
2023-04-30T06:57:58.134Z,4.90
2023-04-30T06:59:30.264Z,8.53
2023-04-30T07:01:03.599Z,5.30
2023-04-30T07:02:37.098Z,4.93
2023-04-30T07:04:10.295Z,5.07
2023-04-30T07:05:43.352Z,4.30
2023-04-30T07:07:16.595Z,4.13
2023-04-30T07:08:49.694Z,4.10
2023-04-30T07:10:24.418Z,3.90
2023-04-30T07:11:58.648Z,3.83
2023-04-30T07:13:31.756Z,3.70
2023-04-30T07:15:05.225Z,3.93
2023-04-30T07:16:38.397Z,4.97
2023-04-30T07:18:11.665Z,4.60
2023-04-30T07:19:44.762Z,4.27
2023-04-30T07:21:17.848Z,4.37
2023-04-30T07:22:50.908Z,4.63
2023-04-30T07:24:24.013Z,4.70
2023-04-30T07:25:58.457Z,4.33
2023-04-30T07:27:32.626Z,4.33
2023-04-30T07:29:05.948Z,4.00
2023-04-30T07:30:39.496Z,4.37
2023-04-30T07:32:12.690Z,4.10
2023-04-30T07:33:45.822Z,4.07
2023-04-30T07:35:19.111Z,3.90
2023-04-30T07:36:52.173Z,4.27
2023-04-30T07:38:25.361Z,4.13
2023-04-30T07:39:58.420Z,4.23
2023-04-30T07:41:33.189Z,4.00
2023-04-30T07:43:06.408Z,4.10
2023-04-30T07:44:39.751Z,4.10
2023-04-30T07:46:12.854Z,4.13
2023-04-30T07:47:46.130Z,4.40
2023-04-30T07:49:19.306Z,4.80
2023-04-30T07:50:53.008Z,4.57
2023-04-30T07:52:26.279Z,4.50
2023-04-30T07:53:59.342Z,4.37
2023-04-30T07:55:32.384Z,4.50
2023-04-30T07:57:07.524Z,4.50
2023-04-30T07:58:40.906Z,4.27
2023-04-30T08:00:15.648Z,4.60
2023-04-30T08:01:48.863Z,4.33
2023-04-30T08:03:22.212Z,4.70
2023-04-30T08:04:55.406Z,4.73
2023-04-30T08:06:29.017Z,4.40
2023-04-30T08:08:02.632Z,4.93
2023-04-30T08:09:35.702Z,4.63
2023-04-30T08:11:08.817Z,4.97
2023-04-30T08:12:43.332Z,4.50
2023-04-30T08:14:16.507Z,5.30
2023-04-30T08:15:49.581Z,4.60
2023-04-30T08:17:22.791Z,4.43
2023-04-30T08:18:55.902Z,4.30
2023-04-30T08:20:29.040Z,4.57
2023-04-30T08:22:02.178Z,4.60
2023-04-30T08:23:35.323Z,4.27
2023-04-30T08:25:11.491Z,5.00
2023-04-30T08:26:44.612Z,4.43
2023-04-30T08:28:19.130Z,4.77
2023-04-30T08:29:52.412Z,4.77
2023-04-30T08:31:25.804Z,4.87
2023-04-30T08:32:59.275Z,4.90
2023-04-30T08:34:32.890Z,4.70
2023-04-30T08:36:06.535Z,4.90
2023-04-30T08:37:39.587Z,4.60
2023-04-30T08:39:12.687Z,4.53
2023-04-30T08:40:53.848Z,4.63
2023-04-30T08:42:30.952Z,4.97
2023-04-30T08:44:08.224Z,4.47
2023-04-30T08:45:41.913Z,4.67
2023-04-30T08:47:15.664Z,4.90
2023-04-30T08:48:49.303Z,4.60
2023-04-30T08:50:22.684Z,4.07
2023-04-30T08:51:55.935Z,4.43
2023-04-30T08:53:30.612Z,4.87
2023-04-30T08:55:08.063Z,5.03
2023-04-30T08:56:41.409Z,4.70
2023-04-30T08:58:14.502Z,5.03
2023-04-30T08:59:48.948Z,4.47
2023-04-30T09:01:22.350Z,4.27
2023-04-30T09:02:55.641Z,4.10
2023-04-30T09:04:30.039Z,4.03
2023-04-30T09:06:03.195Z,3.80
2023-04-30T09:07:37.640Z,3.77
2023-04-30T09:09:12.751Z,4.40
2023-04-30T09:10:46.497Z,4.50
2023-04-30T09:12:20.628Z,4.37
2023-04-30T09:13:55.887Z,4.50
2023-04-30T09:15:31.081Z,4.20
2023-04-30T09:17:04.234Z,4.20
2023-04-30T09:18:40.706Z,4.37
2023-04-30T09:20:14.948Z,4.50
2023-04-30T09:21:48.029Z,4.73
2023-04-30T09:23:21.124Z,4.60
2023-04-30T09:24:54.196Z,4.27
2023-04-30T09:26:34.047Z,4.17
2023-04-30T09:28:12.289Z,4.57
2023-04-30T09:29:46.271Z,3.87
2023-04-30T09:31:22.223Z,4.00
2023-04-30T09:32:58.459Z,3.97
2023-04-30T09:34:35.740Z,3.70
2023-04-30T09:36:11.248Z,4.00
2023-04-30T09:37:44.314Z,4.10
2023-04-30T09:39:18.527Z,3.87
2023-04-30T09:40:51.632Z,4.30
2023-04-30T09:42:24.776Z,6.20
2023-04-30T09:43:58.616Z,4.00
2023-04-30T09:45:41.361Z,4.83
2023-04-30T09:47:17.515Z,4.83
2023-04-30T09:48:58.748Z,4.17
2023-04-30T09:50:40.364Z,4.30
2023-04-30T09:52:16.996Z,4.17
2023-04-30T09:53:51.949Z,4.00
2023-04-30T09:55:25.482Z,5.53
2023-04-30T09:57:01.534Z,4.40
2023-04-30T09:58:38.768Z,4.00
2023-04-30T10:00:12.923Z,3.37
2023-04-30T10:01:46.191Z,3.53
2023-04-30T10:03:23.864Z,3.33
2023-04-30T10:04:59.026Z,3.53
2023-04-30T10:06:35.534Z,3.93
2023-04-30T10:08:14.757Z,3.70
2023-04-30T10:09:51.605Z,3.30
2023-04-30T10:11:29.503Z,3.53
2023-04-30T10:13:07.580Z,4.27
2023-04-30T10:14:42.839Z,3.73
2023-04-30T10:16:23.274Z,3.90
2023-04-30T10:18:02.031Z,4.00
2023-04-30T10:19:41.600Z,4.00
2023-04-30T10:21:16.651Z,5.33
2023-04-30T10:22:50.059Z,4.27
2023-04-30T10:24:23.215Z,11.07
2023-04-30T10:25:57.796Z,6.10
2023-04-30T10:27:30.986Z,5.80
2023-04-30T10:29:04.979Z,3.60
2023-04-30T10:30:38.078Z,6.83
2023-04-30T10:32:13.912Z,3.70
2023-04-30T10:33:55.781Z,3.50
2023-04-30T10:35:34.504Z,3.40
2023-04-30T10:37:14.322Z,3.30
2023-04-30T10:38:48.599Z,2.93
2023-04-30T10:40:21.746Z,3.07
2023-04-30T10:42:03.502Z,3.30
2023-04-30T10:43:37.792Z,11.73
2023-04-30T10:45:12.636Z,12.80
2023-04-30T10:46:47.766Z,4.57
2023-04-30T10:48:25.831Z,3.60
2023-04-30T10:50:05.201Z,3.10
2023-04-30T10:51:51.749Z,3.33
2023-04-30T10:53:28.566Z,2.90
2023-04-30T10:55:06.491Z,3.23
2023-04-30T10:56:39.808Z,3.77
2023-04-30T10:58:28.482Z,3.37
2023-04-30T11:00:20.584Z,3.80
2023-04-30T11:01:58.801Z,3.70
2023-04-30T11:03:32.901Z,3.43
2023-04-30T11:05:14.470Z,3.37
2023-04-30T11:07:02.097Z,4.20
2023-04-30T11:08:36.875Z,4.93
2023-04-30T11:10:10.631Z,4.47
2023-04-30T11:11:45.664Z,2.93
2023-04-30T11:13:18.816Z,3.10
2023-04-30T11:14:51.917Z,3.27
2023-04-30T11:16:30.829Z,3.93
2023-04-30T11:18:04.242Z,3.70
2023-04-30T11:19:37.451Z,3.30
2023-04-30T11:21:11.486Z,3.17
2023-04-30T11:22:46.503Z,3.13
2023-04-30T11:24:21.296Z,3.50
2023-04-30T11:25:57.773Z,3.10
2023-04-30T11:27:32.505Z,3.37
2023-04-30T11:29:07.282Z,3.40
2023-04-30T11:30:41.360Z,3.20
2023-04-30T11:32:15.275Z,2.97
2023-04-30T11:33:48.565Z,3.23
2023-04-30T11:35:21.670Z,3.20
2023-04-30T11:36:59.897Z,3.27
2023-04-30T11:38:36.637Z,3.20
2023-04-30T11:40:12.043Z,3.03
2023-04-30T11:41:46.188Z,2.63
2023-04-30T11:43:26.779Z,2.90
2023-04-30T11:45:08.146Z,2.80
2023-04-30T11:46:43.486Z,2.90
2023-04-30T11:48:17.609Z,2.70
2023-04-30T11:49:53.661Z,3.13
2023-04-30T11:51:28.066Z,3.60
2023-04-30T11:53:03.685Z,2.93
2023-04-30T11:54:39.124Z,3.30
2023-04-30T11:56:12.380Z,3.00
2023-04-30T11:57:47.614Z,3.40
2023-04-30T11:59:20.960Z,3.10
2023-04-30T12:00:54.067Z,2.73
2023-04-30T12:02:27.243Z,3.10
2023-04-30T12:04:00.668Z,3.33
2023-04-30T12:05:33.831Z,3.37
2023-04-30T12:07:09.710Z,3.20
2023-04-30T12:08:43.899Z,3.20
2023-04-30T12:10:20.649Z,3.20
2023-04-30T12:11:53.758Z,3.03
2023-04-30T12:13:26.849Z,3.33
2023-04-30T12:14:59.924Z,3.00
2023-04-30T12:16:41.574Z,3.00
2023-04-30T12:18:15.548Z,3.00
2023-04-30T12:19:48.755Z,3.10
2023-04-30T12:21:22.985Z,3.00
2023-04-30T12:22:56.205Z,3.13
2023-04-30T12:24:29.356Z,3.27
2023-04-30T12:26:03.863Z,2.63
2023-04-30T12:27:37.384Z,2.80
2023-04-30T12:29:15.048Z,3.03
2023-04-30T12:30:48.843Z,2.93
2023-04-30T12:32:23.131Z,2.83
2023-04-30T12:33:57.063Z,2.70
2023-04-30T12:35:32.505Z,3.20
2023-04-30T12:37:06.638Z,2.70
2023-04-30T12:38:43.287Z,2.40
2023-04-30T12:40:17.036Z,2.40
2023-04-30T12:41:51.569Z,3.03
2023-04-30T12:43:24.960Z,2.57
2023-04-30T12:44:58.015Z,2.40
2023-04-30T12:46:31.216Z,2.80
2023-04-30T12:48:04.838Z,2.80
2023-04-30T12:49:37.981Z,2.33
2023-04-30T12:51:11.428Z,2.77
2023-04-30T12:52:46.461Z,2.67
2023-04-30T12:54:27.348Z,2.80
2023-04-30T12:56:12.117Z,2.73
2023-04-30T12:58:11.114Z,2.60
2023-04-30T12:59:59.210Z,2.70
2023-04-30T13:01:33.494Z,2.97
2023-04-30T13:03:06.779Z,2.60
2023-04-30T13:04:40.855Z,2.97
2023-04-30T13:06:14.038Z,2.70
2023-04-30T13:07:47.620Z,2.80
2023-04-30T13:09:20.754Z,2.47
2023-04-30T13:10:53.885Z,2.60
2023-04-30T13:12:26.957Z,2.73
2023-04-30T13:14:01.375Z,2.50
2023-04-30T13:15:34.550Z,2.87
2023-04-30T13:17:09.791Z,2.67
2023-04-30T13:18:43.340Z,2.30
2023-04-30T13:20:17.396Z,2.80
2023-04-30T13:21:50.580Z,2.67
2023-04-30T13:23:23.629Z,2.53
2023-04-30T13:24:57.268Z,2.57
2023-04-30T13:26:30.617Z,2.30
2023-04-30T13:28:03.987Z,2.43
2023-04-30T13:29:38.554Z,2.90
2023-04-30T13:31:11.733Z,3.17
2023-04-30T13:32:45.624Z,2.20
2023-04-30T13:34:18.761Z,2.80
2023-04-30T13:35:51.942Z,2.40
2023-04-30T13:37:25.076Z,2.80
2023-04-30T13:38:58.433Z,2.50
2023-04-30T13:40:31.490Z,2.23
2023-04-30T13:42:05.400Z,2.00
2023-04-30T13:43:42.071Z,2.73
2023-04-30T13:45:17.278Z,2.83
2023-04-30T13:46:50.425Z,6.17
2023-04-30T13:48:23.604Z,4.40
2023-04-30T13:49:57.003Z,2.57
2023-04-30T13:51:30.785Z,2.70
2023-04-30T13:53:03.865Z,2.53
2023-04-30T13:54:37.473Z,2.73
2023-04-30T13:56:10.632Z,2.60
2023-04-30T13:57:43.745Z,2.50
2023-04-30T13:59:17.039Z,2.23
2023-04-30T14:00:51.594Z,2.20
2023-04-30T14:02:24.742Z,2.30
2023-04-30T14:03:58.287Z,2.47
2023-04-30T14:05:31.725Z,2.30
2023-04-30T14:07:05.208Z,3.47
2023-04-30T14:08:38.274Z,3.30
2023-04-30T14:10:12.624Z,2.50
2023-04-30T14:11:45.658Z,2.27
2023-04-30T14:13:18.776Z,2.57
2023-04-30T14:14:52.065Z,2.20
2023-04-30T14:16:27.301Z,2.53
2023-04-30T14:18:01.530Z,2.43
2023-04-30T14:19:35.014Z,3.60
2023-04-30T14:21:08.069Z,3.23
2023-04-30T14:22:41.404Z,2.10
2023-04-30T14:24:15.688Z,2.30
2023-04-30T14:25:48.764Z,3.13
2023-04-30T14:27:22.594Z,2.77
2023-04-30T14:28:55.636Z,2.50
2023-04-30T14:30:28.763Z,3.00
2023-04-30T14:32:04.191Z,3.37
2023-04-30T14:33:37.352Z,2.40
2023-04-30T14:35:11.232Z,2.37
2023-04-30T14:36:44.368Z,2.40
2023-04-30T14:38:17.434Z,2.20
2023-04-30T14:39:50.556Z,2.20
2023-04-30T14:41:23.677Z,3.93
2023-04-30T14:42:56.772Z,4.00
2023-04-30T14:44:30.077Z,2.70
2023-04-30T14:46:03.472Z,2.80
2023-04-30T14:47:38.032Z,2.63
2023-04-30T14:49:11.507Z,2.00
2023-04-30T14:50:45.381Z,2.53
2023-04-30T14:52:18.504Z,2.33
2023-04-30T14:53:51.565Z,2.23
2023-04-30T14:55:24.747Z,2.53
2023-04-30T14:56:57.839Z,1.90
2023-04-30T14:58:30.960Z,2.83
2023-04-30T15:00:04.460Z,2.23
2023-04-30T15:01:37.727Z,2.03
2023-04-30T15:03:12.274Z,2.00
2023-04-30T15:04:46.352Z,2.17
2023-04-30T15:06:19.642Z,1.80
2023-04-30T15:07:52.735Z,2.10
2023-04-30T15:09:25.901Z,1.80
2023-04-30T15:10:58.487Z,1.57
2023-04-30T15:12:31.550Z,1.90
2023-04-30T15:14:04.602Z,1.90
2023-04-30T15:15:37.776Z,1.63
2023-04-30T15:17:11.212Z,17.13
2023-04-30T15:18:45.869Z,2.43
2023-04-30T15:20:19.110Z,1.90
2023-04-30T15:21:52.240Z,2.10
2023-04-30T15:23:25.369Z,2.60
2023-04-30T15:24:59.124Z,8.80
2023-04-30T15:26:33.015Z,9.70
2023-04-30T15:28:06.738Z,2.17
2023-04-30T15:29:41.316Z,1.80
2023-04-30T15:31:14.436Z,1.80
2023-04-30T15:32:50.005Z,1.60
2023-04-30T15:34:24.667Z,2.40
2023-04-30T15:35:57.763Z,2.70
2023-04-30T15:37:30.914Z,2.00
2023-04-30T15:39:04.488Z,1.73
2023-04-30T15:40:37.890Z,1.90
2023-04-30T15:42:11.213Z,1.70
2023-04-30T15:43:44.314Z,1.93
2023-04-30T15:45:17.693Z,1.50
2023-04-30T15:46:51.675Z,1.97
2023-04-30T15:48:25.599Z,3.10
2023-04-30T15:50:00.021Z,7.83
2023-04-30T15:51:34.148Z,15.60
2023-04-30T15:53:07.261Z,2.27
2023-04-30T15:54:40.313Z,3.33
2023-04-30T15:56:13.452Z,8.77
2023-04-30T15:57:46.543Z,8.20
2023-04-30T15:59:19.779Z,7.00
2023-04-30T16:00:53.677Z,6.97
2023-04-30T16:02:26.994Z,11.13
2023-04-30T16:04:00.812Z,2.53
2023-04-30T16:05:38.753Z,2.10
2023-04-30T16:07:12.343Z,2.00
2023-04-30T16:08:45.999Z,1.80
2023-04-30T16:10:19.954Z,2.13
2023-04-30T16:11:53.073Z,2.20
2023-04-30T16:13:26.165Z,2.77
2023-04-30T16:14:59.239Z,2.33
2023-04-30T16:16:32.532Z,2.07
2023-04-30T16:18:06.569Z,2.40
2023-04-30T16:19:39.680Z,2.20
2023-04-30T16:21:14.176Z,2.27
2023-04-30T16:22:47.477Z,2.20
2023-04-30T16:24:20.549Z,2.40
2023-04-30T16:25:55.036Z,2.20
2023-04-30T16:27:28.096Z,2.20
2023-04-30T16:29:01.388Z,2.47
2023-04-30T16:30:34.498Z,2.33
2023-04-30T16:32:07.762Z,2.00
2023-04-30T16:33:41.690Z,1.90
2023-04-30T16:35:15.456Z,2.00
2023-04-30T16:36:49.910Z,2.50
2023-04-30T16:38:23.075Z,2.33
2023-04-30T16:39:56.639Z,2.40
2023-04-30T16:41:30.022Z,1.90
2023-04-30T16:43:03.104Z,2.33
2023-04-30T16:44:36.916Z,2.10
2023-04-30T16:46:10.565Z,2.10
2023-04-30T16:47:43.805Z,2.33
2023-04-30T16:49:16.938Z,2.23
2023-04-30T16:50:50.007Z,2.33
2023-04-30T16:52:24.489Z,2.17
2023-04-30T16:53:57.530Z,2.33
2023-04-30T16:55:31.672Z,2.17
2023-04-30T16:57:05.446Z,2.10
2023-04-30T16:58:38.879Z,2.30
2023-04-30T17:00:14.282Z,2.27
2023-04-30T17:01:47.876Z,2.57
2023-04-30T17:03:21.042Z,2.47
2023-04-30T17:04:54.174Z,2.30
2023-04-30T17:06:27.262Z,2.60
2023-04-30T17:08:01.732Z,2.50
2023-04-30T17:09:34.837Z,2.70
2023-04-30T17:11:07.916Z,2.30
2023-04-30T17:12:41.292Z,2.27
2023-04-30T17:14:14.402Z,2.97
2023-04-30T17:15:47.481Z,2.90
2023-04-30T17:17:20.790Z,2.90
2023-04-30T17:18:53.901Z,2.50
2023-04-30T17:20:27.138Z,2.83
2023-04-30T17:22:00.241Z,2.60
2023-04-30T17:23:34.684Z,5.23
2023-04-30T17:25:08.207Z,13.27
2023-04-30T17:26:41.497Z,13.30
2023-04-30T17:28:14.653Z,5.03
2023-04-30T17:29:48.533Z,3.50
2023-04-30T17:31:21.665Z,2.70
2023-04-30T17:32:54.818Z,2.70
2023-04-30T17:34:28.266Z,3.60
2023-04-30T17:36:01.392Z,3.30
2023-04-30T17:37:35.366Z,2.70
2023-04-30T17:39:10.403Z,3.23
2023-04-30T17:40:43.576Z,2.93
2023-04-30T17:42:17.949Z,3.43
2023-04-30T17:43:51.823Z,3.37
2023-04-30T17:45:26.735Z,4.07
2023-04-30T17:46:59.815Z,13.20
2023-04-30T17:48:32.936Z,8.23
2023-04-30T17:50:08.501Z,14.77
2023-04-30T17:51:41.743Z,14.73
2023-04-30T17:53:15.054Z,16.90
2023-04-30T17:54:49.567Z,5.37
2023-04-30T17:56:23.336Z,6.13
2023-04-30T17:57:56.951Z,12.40
2023-04-30T17:59:30.765Z,7.70
2023-04-30T18:01:03.884Z,4.20
2023-04-30T18:02:37.865Z,4.13
2023-04-30T18:04:11.061Z,3.73
2023-04-30T18:05:45.191Z,3.53
2023-04-30T18:07:18.518Z,3.70
2023-04-30T18:08:51.623Z,4.50
2023-04-30T18:10:26.094Z,6.73
2023-04-30T18:12:00.183Z,7.70
2023-04-30T18:13:33.444Z,9.80
2023-04-30T18:15:08.469Z,11.83
2023-04-30T18:16:42.063Z,10.97
2023-04-30T18:18:15.420Z,10.50
2023-04-30T18:19:49.799Z,9.33
2023-04-30T18:21:22.936Z,9.93
2023-04-30T18:22:56.042Z,9.27
2023-04-30T18:24:29.112Z,7.63
2023-04-30T18:26:04.026Z,7.40
2023-04-30T18:27:37.112Z,7.53
2023-04-30T18:29:10.287Z,9.90
2023-04-30T18:30:43.371Z,10.60
2023-04-30T18:32:17.484Z,7.23
2023-04-30T18:33:50.750Z,6.90
2023-04-30T18:35:23.871Z,6.97
2023-04-30T18:36:57.077Z,7.23
2023-04-30T18:38:30.504Z,7.17
2023-04-30T18:40:04.829Z,8.57
2023-04-30T18:41:39.302Z,8.77
2023-04-30T18:43:13.216Z,13.67
2023-04-30T18:44:46.293Z,10.27
2023-04-30T18:46:19.432Z,8.90
2023-04-30T18:47:52.765Z,7.73
2023-04-30T18:49:25.977Z,8.30
2023-04-30T18:50:59.002Z,8.13
2023-04-30T18:52:32.109Z,7.77
2023-04-30T18:54:05.270Z,11.53
2023-04-30T18:55:38.342Z,10.20
2023-04-30T18:57:16.332Z,9.93
2023-04-30T18:58:49.503Z,9.10
2023-04-30T19:00:22.707Z,12.17
2023-04-30T19:01:55.845Z,8.97
2023-04-30T19:03:30.447Z,10.73
2023-04-30T19:05:03.868Z,8.50
2023-04-30T19:06:37.578Z,8.00
2023-04-30T19:08:10.853Z,7.43
2023-04-30T19:09:45.233Z,7.63
2023-04-30T19:11:18.499Z,9.40
2023-04-30T19:12:52.935Z,8.20
2023-04-30T19:14:26.075Z,8.67
2023-04-30T19:15:59.706Z,9.90
2023-04-30T19:17:32.880Z,11.10
2023-04-30T19:19:06.020Z,10.90
2023-04-30T19:20:39.088Z,11.53
2023-04-30T19:22:12.387Z,12.03
2023-04-30T19:23:45.439Z,12.07
2023-04-30T19:25:18.766Z,13.00
2023-04-30T19:26:52.190Z,12.73
2023-04-30T19:28:26.918Z,13.30
2023-04-30T19:30:00.068Z,13.70
2023-04-30T19:31:35.230Z,13.73
2023-04-30T19:33:08.495Z,13.50
2023-04-30T19:34:41.585Z,14.67
2023-04-30T19:36:14.718Z,13.53
2023-04-30T19:37:47.800Z,12.07
2023-04-30T19:39:21.020Z,13.60
2023-04-30T19:40:55.870Z,12.30
2023-04-30T19:42:30.249Z,11.67
2023-04-30T19:44:04.723Z,12.27
2023-04-30T19:45:37.765Z,11.50
2023-04-30T19:47:10.836Z,10.30
2023-04-30T19:48:46.338Z,10.83
2023-04-30T19:50:20.279Z,10.07
2023-04-30T19:51:53.402Z,10.13
2023-04-30T19:53:27.029Z,10.77
2023-04-30T19:55:00.138Z,10.83
2023-04-30T19:56:33.289Z,10.93
2023-04-30T19:58:06.556Z,10.57
2023-04-30T19:59:40.980Z,10.20
2023-04-30T20:01:14.314Z,11.10
2023-04-30T20:02:47.660Z,11.07
2023-04-30T20:04:20.970Z,11.63
2023-04-30T20:05:54.105Z,11.27
2023-04-30T20:07:27.397Z,13.70
2023-04-30T20:09:01.029Z,16.73
2023-04-30T20:10:36.190Z,21.10
2023-04-30T20:12:09.707Z,22.07
2023-04-30T20:13:42.799Z,21.43
2023-04-30T20:15:17.323Z,19.70
2023-04-30T20:16:54.073Z,17.23
2023-04-30T20:18:27.250Z,16.77
2023-04-30T20:20:00.379Z,16.00
2023-04-30T20:21:34.550Z,16.10
2023-04-30T20:23:15.058Z,15.43
2023-04-30T20:24:48.175Z,15.20
2023-04-30T20:26:21.611Z,15.33
2023-04-30T20:27:55.854Z,14.20
2023-04-30T20:29:29.389Z,14.17
2023-04-30T20:31:03.901Z,13.90
2023-04-30T20:32:38.843Z,14.40
2023-04-30T20:34:12.038Z,14.87
2023-04-30T20:35:47.230Z,14.23
2023-04-30T20:37:20.472Z,15.10
2023-04-30T20:38:55.610Z,16.70
2023-04-30T20:40:29.675Z,17.40
2023-04-30T20:42:03.885Z,18.33
2023-04-30T20:43:37.200Z,18.17
2023-04-30T20:45:11.636Z,19.27
2023-04-30T20:46:46.213Z,19.33